Mid City East, Pennsylvania
Current Conditions -  °F | °C
As of 4:54 PM on Thursday 27 Nov 2014 (Local Time) from KPHL Reporting Station
Broken Clouds Broken Clouds  
Wind Chill: 32°   Ceiling: 8000
Heat Index: 39°   Visibility: 10mi
Dew Point: 27°   Wind: 10mph
Humidity: 62%   Direction: 300°WNW
Pressure: 30.07"   Gusts: NA
Location:  39.9531°N, 75.1651°W
Report Text: KPHL 272154Z 30009KT 10SM FEW055 BKN080 04/M03 A3007 RMK AO2 SLP181 T00391028 $
Loading
Personal Weather Stations






























Interactive Weather Map New forecast layout! Learn more

10-Day Weather Forecast

Advertisements
Track Severe Weather on mobile